Time;durP1;ratioP1;P1;durP2;ratioP2;P2;SDS_P1;SDS_P2;PMS_P1;PMS_P2;Temp;Humidity;BMP_temperature;BMP_pressure;BME280_temperature;BME280_humidity;BME280_pressure;Samples;Min_cycle;Max_cycle;Signal;HPM_P1;HPM_P2
2022/10/31 00:00:02;;;;;;;384.53;256.33;;;;;;;16.73;53.58;99847.66;304376;32;1382;-77
2022/10/31 00:00:12;;;;;;;385.60;259.42;;;;;;;16.72;54.34;99845.94;301692;32;3135;-78
2022/10/31 00:00:23;;;;;;;390.23;264.73;;;;;;;16.72;53.77;99851.25;299568;32;3580;-77
2022/10/31 00:00:33;;;;;;;393.40;266.17;;;;;;;16.73;53.57;99850.28;298047;33;1335;-77
2022/10/31 00:00:44;;;;;;;389.48;260.58;;;;;;;16.73;54.02;99845.00;297338;32;3600;-76
2022/10/31 00:00:54;;;;;;;385.07;258.60;;;;;;;16.74;53.64;99844.06;295314;32;5897;-77
2022/10/31 00:01:18;;;;;;;382.30;256.20;;;;;;;16.76;53.77;99852.75;296118;33;1019;-78
2022/10/31 00:01:33;;;;;;;380.83;254.25;;;;;;;16.75;53.79;99853.69;293970;33;4048;-78
2022/10/31 00:01:43;;;;;;;381.42;252.13;;;;;;;16.76;53.71;99850.09;292574;33;3052;-77
2022/10/31 00:01:53;;;;;;;382.70;252.80;;;;;;;16.75;53.60;99847.56;292804;33;2718;-77
2022/10/31 00:02:04;;;;;;;384.20;255.07;;;;;;;16.75;54.19;99848.41;291147;34;1243;-77
2022/10/31 00:02:14;;;;;;;387.63;262.00;;;;;;;16.76;53.94;99846.59;289729;34;4160;-77
2022/10/31 00:02:25;;;;;;;387.53;261.37;;;;;;;16.76;53.62;99847.47;290504;33;4956;-77
2022/10/31 00:02:35;;;;;;;389.35;263.83;;;;;;;16.76;53.86;99847.47;289217;34;1358;-77
2022/10/31 00:02:45;;;;;;;390.37;265.57;;;;;;;16.76;53.69;99847.47;286213;34;6039;-77
2022/10/31 00:02:56;;;;;;;389.80;263.92;;;;;;;16.78;54.07;99856.16;285347;34;6046;-77
2022/10/31 00:03:06;;;;;;;387.57;259.03;;;;;;;16.77;53.78;99849.16;287373;33;7277;-77
2022/10/31 00:03:17;;;;;;;385.47;255.60;;;;;;;16.80;53.70;99850.75;287943;34;1615;-77
2022/10/31 00:03:27;;;;;;;386.90;259.92;;;;;;;16.79;53.91;99851.72;285722;34;6763;-77
2022/10/31 00:03:37;;;;;;;388.93;263.60;;;;;;;16.79;53.73;99846.41;284522;34;5685;-77
2022/10/31 00:03:48;;;;;;;388.60;259.88;;;;;;;16.78;53.53;99850.84;282575;35;980;-77
2022/10/31 00:03:58;;;;;;;385.83;255.00;;;;;;;16.78;53.55;99850.84;279406;35;4080;-76
2022/10/31 00:04:09;;;;;;;387.35;254.93;;;;;;;16.79;53.53;99843.78;277400;35;5164;-77
2022/10/31 00:04:19;;;;;;;388.50;261.83;;;;;;;16.79;53.44;99847.28;280886;35;833;-77
2022/10/31 00:04:29;;;;;;;389.77;264.33;;;;;;;16.79;53.56;99841.97;274719;35;6289;-77
2022/10/31 00:04:40;;;;;;;388.97;265.67;;;;;;;16.80;53.56;99841.03;272058;35;7048;-77
2022/10/31 00:04:50;;;;;;;388.43;260.90;;;;;;;16.81;53.68;99853.31;273831;36;1295;-77
2022/10/31 00:05:01;;;;;;;385.20;257.63;;;;;;;16.80;53.54;99848.13;272472;36;8926;-78
2022/10/31 00:06:44;;;;;;;369.66;235.35;;;;;;;16.81;53.32;99850.66;2502875;27;20262;-77
2022/10/31 00:06:54;;;;;;;379.03;246.30;;;;;;;16.81;53.60;99853.31;349353;28;3769;-77
2022/10/31 00:07:04;;;;;;;378.25;243.90;;;;;;;16.81;53.65;99850.66;348073;28;2851;-77
2022/10/31 00:07:15;;;;;;;383.23;248.87;;;;;;;16.82;53.79;99848.88;346125;28;1590;-77
2022/10/31 00:07:25;;;;;;;386.90;248.30;;;;;;;16.82;53.59;99856.81;347244;28;1969;-77
2022/10/31 00:07:36;;;;;;;386.20;249.10;;;;;;;16.81;53.61;99847.19;348835;28;3150;-77
2022/10/31 00:07:46;;;;;;;383.93;249.67;;;;;;;16.82;53.57;99852.38;348655;28;1191;-77
2022/10/31 00:07:56;;;;;;;382.10;251.15;;;;;;;16.82;53.62;99846.22;349108;28;1435;-77
2022/10/31 00:08:07;;;;;;;382.60;251.07;;;;;;;16.80;53.34;99843.69;347073;28;1176;-77
2022/10/31 00:08:17;;;;;;;383.80;253.45;;;;;;;16.81;53.55;99848.03;347114;28;1310;-76
2022/10/31 00:08:28;;;;;;;382.53;252.87;;;;;;;16.82;53.58;99855.00;347289;28;1292;-76
2022/10/31 00:08:38;;;;;;;381.80;253.52;;;;;;;16.82;53.44;99840.94;346710;28;1330;-78
2022/10/31 00:08:56;;;;;;;380.40;248.40;;;;;;;16.81;53.60;99845.38;344918;28;1264;-77
2022/10/31 00:09:06;;;;;;;379.30;251.23;;;;;;;16.82;53.62;99849.72;343555;28;1534;-77
2022/10/31 00:09:16;;;;;;;380.33;254.30;;;;;;;16.82;53.48;99847.09;344805;28;875;-77
2022/10/31 00:09:27;;;;;;;381.40;250.85;;;;;;;16.82;53.28;99846.22;348798;28;982;-77
2022/10/31 00:09:37;;;;;;;383.17;249.00;;;;;;;16.83;53.09;99853.22;347674;28;757;-77
2022/10/31 00:09:48;;;;;;;382.40;248.63;;;;;;;16.83;53.48;99850.56;347245;28;1440;-77
2022/10/31 00:09:58;;;;;;;381.33;250.87;;;;;;;16.82;53.42;99852.38;346187;28;1208;-78
2022/10/31 00:10:09;;;;;;;379.73;248.80;;;;;;;16.84;53.51;99846.97;346300;28;769;-77
2022/10/31 00:10:19;;;;;;;382.08;250.27;;;;;;;16.84;53.11;99853.13;344817;28;975;-76
2022/10/31 00:10:29;;;;;;;382.57;249.83;;;;;;;16.84;53.69;99844.34;343345;28;1048;-78
2022/10/31 00:10:41;;;;;;;381.00;249.20;;;;;;;16.83;53.39;99848.78;345719;28;1573;-77
2022/10/31 00:10:52;;;;;;;379.30;249.10;;;;;;;16.84;53.52;99845.19;346090;28;1437;-77
2022/10/31 00:11:02;;;;;;;380.53;252.57;;;;;;;16.84;53.68;99845.19;343599;28;1314;-77
2022/10/31 00:11:14;;;;;;;382.35;253.88;;;;;;;16.85;53.84;99852.19;343460;28;964;-78
2022/10/31 00:11:24;;;;;;;386.85;256.08;;;;;;;16.86;53.49;99847.75;343741;28;1175;-77
2022/10/31 00:11:35;;;;;;;385.57;251.27;;;;;;;16.86;53.38;99848.59;343683;28;1409;-77
2022/10/31 00:11:45;;;;;;;383.05;249.07;;;;;;;16.85;53.35;99846.88;344906;28;900;-77
2022/10/31 00:11:56;;;;;;;378.07;243.90;;;;;;;16.85;53.41;99849.53;347694;28;1310;-77
2022/10/31 00:12:06;;;;;;;378.73;244.87;;;;;;;16.86;53.41;99851.22;346261;28;808;-78
2022/10/31 00:12:16;;;;;;;382.50;250.05;;;;;;;16.86;53.46;99851.22;344860;28;1018;-77
2022/10/31 00:12:27;;;;;;;383.20;248.43;;;;;;;16.86;53.38;99850.38;346100;28;876;-76
2022/10/31 00:12:37;;;;;;;383.30;248.32;;;;;;;16.85;53.34;99846.88;347253;28;1300;-76
2022/10/31 00:12:48;;;;;;;386.93;254.50;;;;;;;16.87;53.58;99845.00;347651;28;1190;-76
2022/10/31 00:12:58;;;;;;;386.45;256.00;;;;;;;16.89;53.30;99845.75;349117;28;1373;-78
2022/10/31 00:13:09;;;;;;;385.30;252.40;;;;;;;16.88;53.52;99846.69;347365;28;1138;-77
2022/10/31 00:13:19;;;;;;;383.23;251.30;;;;;;;16.89;53.19;99843.09;349615;28;1528;-77
2022/10/31 00:13:29;;;;;;;385.10;258.00;;;;;;;16.86;53.33;99845.94;349043;28;1424;-77
2022/10/31 00:13:40;;;;;;;385.08;260.42;;;;;;;16.86;53.37;99840.66;347418;28;1139;-77
2022/10/31 00:13:50;;;;;;;383.47;257.83;;;;;;;16.86;53.63;99848.59;345287;28;895;-78
2022/10/31 00:14:02;;;;;;;383.80;257.92;;;;;;;16.86;53.57;99848.59;347552;28;1743;-77
2022/10/31 00:14:13;;;;;;;381.98;252.77;;;;;;;16.86;53.48;99848.59;346269;28;983;-78
2022/10/31 00:14:23;;;;;;;380.90;247.37;;;;;;;16.86;53.23;99843.31;344031;28;1295;-78
2022/10/31 00:14:33;;;;;;;378.73;243.20;;;;;;;16.87;53.35;99844.16;340921;28;1478;-77
2022/10/31 00:14:44;;;;;;;379.43;245.30;;;;;;;16.86;53.27;99845.94;342037;28;1254;-77
2022/10/31 00:14:54;;;;;;;381.67;245.00;;;;;;;16.86;53.36;99838.00;341253;28;1599;-77
2022/10/31 00:15:05;;;;;;;383.38;248.32;;;;;;;16.85;53.34;99841.59;339299;29;1214;-77
2022/10/31 00:15:15;;;;;;;381.90;243.87;;;;;;;16.84;53.66;99842.53;336862;29;1268;-79
2022/10/31 00:15:28;;;;;;;381.47;252.53;;;;;;;16.85;53.38;99844.25;341033;28;1079;-79
2022/10/31 00:15:39;;;;;;;380.02;250.95;;;;;;;16.84;53.38;99845.19;338668;28;1911;-78
2022/10/31 00:15:49;;;;;;;378.73;246.18;;;;;;;16.85;53.47;99838.97;336485;29;1509;-78
2022/10/31 00:16:00;;;;;;;379.87;249.90;;;;;;;16.86;53.21;99843.31;333165;29;2777;-78
2022/10/31 00:16:15;;;;;;;381.48;252.93;;;;;;;16.86;53.26;99845.09;328952;29;4383;-78
2022/10/31 00:16:25;;;;;;;381.65;249.00;;;;;;;16.88;54.08;99841.41;336964;29;884;-78
2022/10/31 00:16:35;;;;;;;385.43;254.07;;;;;;;16.88;53.64;99846.69;337182;29;1865;-79
2022/10/31 00:16:46;;;;;;;386.93;255.93;;;;;;;16.88;53.62;99846.69;336329;29;3218;-78
2022/10/31 00:16:56;;;;;;;385.47;256.63;;;;;;;16.88;53.33;99841.41;332881;29;1947;-78
2022/10/31 00:17:07;;;;;;;382.47;250.77;;;;;;;16.88;53.24;99841.41;333202;29;1973;-78
2022/10/31 00:17:17;;;;;;;380.60;249.48;;;;;;;16.89;53.66;99844.91;330641;29;1340;-78
2022/10/31 00:17:27;;;;;;;380.10;243.10;;;;;;;16.89;53.59;99836.97;332369;29;1457;-78
2022/10/31 00:17:38;;;;;;;384.10;250.57;;;;;;;16.89;53.44;99843.09;333849;29;1788;-78
2022/10/31 00:17:48;;;;;;;385.63;250.13;;;;;;;16.89;53.29;99840.47;331072;29;1868;-78
2022/10/31 00:17:58;;;;;;;384.38;255.32;;;;;;;16.88;53.16;99841.41;328923;30;1316;-77
2022/10/31 00:18:10;;;;;;;383.70;253.07;;;;;;;16.90;53.22;99844.78;331033;29;1258;-77
2022/10/31 00:18:20;;;;;;;383.05;252.90;;;;;;;16.91;53.33;99846.47;328161;29;1371;-77
2022/10/31 00:18:30;;;;;;;383.77;248.73;;;;;;;16.91;53.21;99845.63;331496;29;1321;-77
2022/10/31 00:18:41;;;;;;;384.42;253.43;;;;;;;16.92;53.36;99842.03;330476;29;1329;-78
2022/10/31 00:18:52;;;;;;;386.37;258.80;;;;;;;16.91;53.39;99846.47;328968;29;1992;-77
2022/10/31 00:19:03;;;;;;;384.38;260.52;;;;;;;16.91;53.20;99840.34;325731;30;902;-78
2022/10/31 00:19:14;;;;;;;384.08;255.00;;;;;;;16.91;53.41;99841.19;322154;30;793;-78
2022/10/31 00:19:24;;;;;;;386.45;258.92;;;;;;;16.90;53.53;99839.50;323655;30;2375;-77
2022/10/31 00:19:35;;;;;;;389.03;261.33;;;;;;;16.89;53.31;99840.47;325072;29;2230;-77
2022/10/31 00:19:45;;;;;;;388.42;264.67;;;;;;;16.89;53.18;99843.09;328056;30;1235;-77
2022/10/31 00:19:56;;;;;;;388.10;262.37;;;;;;;16.88;53.09;99836.13;324174;30;2728;-77
2022/10/31 00:20:07;;;;;;;386.98;263.08;;;;;;;16.89;53.14;99845.75;321613;30;2395;-77
2022/10/31 00:20:18;;;;;;;386.33;260.38;;;;;;;16.89;52.94;99839.63;323099;30;893;-77
2022/10/31 00:20:28;;;;;;;384.27;260.13;;;;;;;16.89;53.05;99835.19;323766;30;1445;-77
2022/10/31 00:20:38;;;;;;;383.37;257.93;;;;;;;16.88;53.04;99844.06;326277;30;1451;-77
2022/10/31 00:20:49;;;;;;;380.67;251.32;;;;;;;16.88;53.03;99837.91;326669;30;2141;-77
2022/10/31 00:21:00;;;;;;;380.23;250.87;;;;;;;16.88;53.38;99841.41;324424;30;1566;-77
2022/10/31 00:21:11;;;;;;;378.77;248.00;;;;;;;16.88;53.32;99840.56;324521;30;2280;-77
2022/10/31 00:21:21;;;;;;;380.83;252.37;;;;;;;16.85;53.67;99846.88;324235;30;2661;-78
2022/10/31 00:21:32;;;;;;;384.27;255.80;;;;;;;16.86;53.46;99843.31;322096;30;1213;-78
2022/10/31 00:21:43;;;;;;;385.90;261.30;;;;;;;16.86;53.77;99843.31;318430;30;3044;-77
2022/10/31 00:21:53;;;;;;;385.47;259.30;;;;;;;16.86;53.53;99848.59;319197;30;2523;-78
2022/10/31 00:22:03;;;;;;;384.13;258.95;;;;;;;16.86;53.44;99845.09;318647;30;2798;-77
2022/10/31 00:22:14;;;;;;;384.23;256.00;;;;;;;16.86;52.78;99837.16;322085;30;1336;-77
2022/10/31 00:22:24;;;;;;;384.97;257.97;;;;;;;16.88;53.24;99841.41;321821;30;2628;-77
2022/10/31 00:22:35;;;;;;;384.48;255.45;;;;;;;16.88;53.04;99844.06;318636;30;1886;-77
2022/10/31 00:22:45;;;;;;;383.60;253.73;;;;;;;16.88;53.27;99836.13;318639;31;825;-77
2022/10/31 00:23:02;;;;;;;382.80;251.23;;;;;;;16.90;53.19;99843.94;319975;30;2275;-77
2022/10/31 00:23:14;;;;;;;385.98;251.00;;;;;;;16.89;53.25;99836.97;319147;30;2386;-77
2022/10/31 00:23:24;;;;;;;386.38;251.00;;;;;;;16.89;53.20;99844.91;316530;31;3230;-78
2022/10/31 00:23:34;;;;;;;387.23;253.40;;;;;;;16.89;53.44;99845.75;315690;31;3644;-78
2022/10/31 00:23:45;;;;;;;385.10;252.23;;;;;;;16.90;52.87;99846.56;316384;31;810;-78
2022/10/31 00:23:56;;;;;;;385.92;251.27;;;;;;;16.90;53.39;99842.13;314286;31;4105;-79
2022/10/31 00:24:07;;;;;;;384.77;247.75;;;;;;;16.90;53.22;99844.78;310299;31;3152;-78
2022/10/31 00:24:17;;;;;;;384.83;251.77;;;;;;;16.91;53.01;99848.28;307496;32;812;-77
2022/10/31 00:24:28;;;;;;;382.73;250.73;;;;;;;16.91;53.07;99840.34;304479;32;998;-79
2022/10/31 00:24:38;;;;;;;382.85;251.32;;;;;;;16.90;53.15;99843.94;302691;32;3381;-78
2022/10/31 00:24:50;;;;;;;385.30;255.77;;;;;;;16.90;52.93;99844.78;302474;32;2331;-78
2022/10/31 00:25:00;;;;;;;383.95;253.38;;;;;;;16.90;52.90;99838.63;298513;32;1806;-78
2022/10/31 00:25:11;;;;;;;383.23;249.07;;;;;;;16.90;53.45;99847.41;298725;32;3824;-79
2022/10/31 00:25:22;;;;;;;382.67;249.95;;;;;;;16.91;53.18;99841.19;297223;32;4876;-78
2022/10/31 00:25:34;;;;;;;386.33;256.73;;;;;;;16.92;52.84;99842.03;300418;32;1981;-77
2022/10/31 00:25:44;;;;;;;390.58;262.00;;;;;;;16.91;53.31;99849.13;293428;33;2323;-78
2022/10/31 00:26:00;;;;;;;389.87;256.93;;;;;;;16.92;53.02;99848.16;292038;33;4866;-79
2022/10/31 00:26:10;;;;;;;386.63;250.15;;;;;;;16.92;53.26;99844.69;285834;34;4823;-78
2022/10/31 00:26:20;;;;;;;384.27;248.40;;;;;;;16.92;53.08;99845.53;285022;34;4120;-78
2022/10/31 00:26:31;;;;;;;383.33;250.07;;;;;;;16.93;52.86;99849.88;286404;34;2485;-78
2022/10/31 00:26:41;;;;;;;382.67;248.77;;;;;;;16.93;53.15;99849.03;285576;34;4341;-77
2022/10/31 00:26:52;;;;;;;383.83;251.57;;;;;;;16.93;52.98;99854.31;285764;34;4871;-77
2022/10/31 00:27:02;;;;;;;384.90;251.40;;;;;;;16.92;53.08;99842.03;287957;34;1382;-78
2022/10/31 00:27:13;;;;;;;384.30;252.75;;;;;;;16.92;52.91;99845.53;285155;34;3390;-77
2022/10/31 00:27:23;;;;;;;382.30;250.73;;;;;;;16.92;53.01;99848.16;285866;34;4154;-77
2022/10/31 00:27:33;;;;;;;381.85;249.77;;;;;;;16.92;54.71;99845.53;284289;34;4638;-78
2022/10/31 00:27:45;;;;;;;381.63;250.07;;;;;;;16.91;53.52;99843.81;282756;35;889;-78
2022/10/31 00:27:55;;;;;;;381.33;250.65;;;;;;;16.91;53.22;99845.63;281095;34;6222;-78
2022/10/31 00:28:06;;;;;;;382.33;253.90;;;;;;;16.91;53.13;99841.19;278797;34;7928;-78
2022/10/31 00:28:17;;;;;;;381.85;253.40;;;;;;;16.92;53.11;99848.16;277431;35;1493;-78
2022/10/31 00:28:27;;;;;;;381.85;255.63;;;;;;;16.92;53.23;99842.88;273799;35;7516;-78
2022/10/31 00:28:37;;;;;;;383.50;255.87;;;;;;;16.92;53.06;99848.16;275494;35;7020;-78
2022/10/31 00:28:48;;;;;;;384.83;260.02;;;;;;;16.91;53.33;99849.13;275936;35;6248;-77
2022/10/31 00:28:59;;;;;;;386.65;265.25;;;;;;;16.93;53.39;99843.72;272217;36;885;-78
2022/10/31 00:29:10;;;;;;;385.40;263.07;;;;;;;16.94;52.99;99848.06;268470;36;7081;-78
2022/10/31 00:29:20;;;;;;;385.17;259.35;;;;;;;16.94;53.13;99843.63;268273;36;5272;-77
2022/10/31 00:29:30;;;;;;;384.90;257.10;;;;;;;16.94;53.09;99843.63;268167;36;838;-77
2022/10/31 00:31:11;;;;;;;374.19;241.22;;;;;;;17.01;53.08;99848.53;2492871;27;20502;-78
2022/10/31 00:31:21;;;;;;;383.38;250.27;;;;;;;16.99;53.10;99846.00;350229;28;1285;-78
2022/10/31 00:31:32;;;;;;;384.87;251.57;;;;;;;17.01;52.92;99837.97;349029;28;863;-78
2022/10/31 00:31:42;;;;;;;384.75;255.80;;;;;;;17.01;53.01;99846.75;347547;28;1348;-77
2022/10/31 00:31:52;;;;;;;381.47;252.70;;;;;;;17.01;53.09;99845.91;349450;28;1392;-77
2022/10/31 00:32:03;;;;;;;380.10;253.23;;;;;;;17.01;53.72;99849.38;350424;28;938;-77
2022/10/31 00:32:13;;;;;;;379.97;251.07;;;;;;;17.02;54.54;99847.59;351711;28;1203;-77
2022/10/31 00:32:24;;;;;;;382.60;256.08;;;;;;;17.00;53.60;99850.34;348811;28;1412;-77
2022/10/31 00:32:34;;;;;;;383.80;258.37;;;;;;;17.01;53.32;99845.91;349744;28;860;-77
2022/10/31 00:32:44;;;;;;;383.88;258.25;;;;;;;17.01;53.21;99849.38;348789;28;1225;-77
2022/10/31 00:32:55;;;;;;;381.50;251.83;;;;;;;17.01;53.07;99840.59;350511;28;858;-77
2022/10/31 00:33:05;;;;;;;383.42;256.67;;;;;;;17.01;52.97;99845.91;350307;28;876;-77
2022/10/31 00:33:16;;;;;;;385.03;256.30;;;;;;;17.02;53.36;99839.66;349685;28;1557;-77
2022/10/31 00:33:26;;;;;;;386.30;256.47;;;;;;;17.01;53.07;99854.69;344656;28;1325;-77
2022/10/31 00:33:37;;;;;;;382.67;248.77;;;;;;;17.02;53.00;99843.16;346062;28;1771;-77
2022/10/31 00:33:48;;;;;;;381.35;248.00;;;;;;;17.02;53.09;99843.16;346088;28;1320;-77
2022/10/31 00:33:58;;;;;;;380.92;249.70;;;;;;;17.01;53.18;99846.75;343507;28;1360;-77
2022/10/31 00:34:09;;;;;;;382.63;251.50;;;;;;;17.02;52.89;99837.00;344855;28;1074;-77
2022/10/31 00:34:19;;;;;;;381.98;251.38;;;;;;;17.02;53.08;99840.50;344764;28;1536;-77
2022/10/31 00:34:29;;;;;;;382.53;252.57;;;;;;;17.03;53.29;99839.56;340635;28;4229;-77
2022/10/31 00:34:40;;;;;;;383.88;254.05;;;;;;;17.02;53.18;99840.50;343136;28;3430;-78
2022/10/31 00:34:50;;;;;;;387.20;260.33;;;;;;;17.03;53.22;99849.28;345653;28;1588;-78
2022/10/31 00:35:00;;;;;;;386.97;258.50;;;;;;;17.02;53.14;99843.16;345901;28;3002;-78
2022/10/31 00:35:11;;;;;;;386.88;256.60;;;;;;;17.03;53.14;99842.22;344941;28;1416;-77
2022/10/31 00:35:21;;;;;;;383.57;250.40;;;;;;;17.04;53.23;99845.69;345682;28;1177;-77
2022/10/31 00:35:32;;;;;;;381.38;248.52;;;;;;;17.04;53.26;99841.25;342952;28;1460;-77
2022/10/31 00:35:42;;;;;;;381.93;253.17;;;;;;;17.03;53.08;99844.84;344192;28;1537;-77
2022/10/31 00:35:52;;;;;;;382.13;252.35;;;;;;;17.03;53.55;99849.28;343315;28;1604;-77
2022/10/31 00:36:04;;;;;;;383.07;251.83;;;;;;;17.03;53.38;99838.72;343643;28;876;-77
2022/10/31 00:36:16;;;;;;;381.27;245.80;;;;;;;17.04;53.15;99837.78;342579;28;1316;-79
2022/10/31 00:36:27;;;;;;;382.25;250.60;;;;;;;17.05;53.18;99842.97;344957;28;1155;-77
2022/10/31 00:36:37;;;;;;;382.30;253.33;;;;;;;17.05;53.35;99842.13;346155;28;896;-77
2022/10/31 00:36:47;;;;;;;381.33;252.48;;;;;;;17.05;53.16;99839.47;345133;28;827;-77
2022/10/31 00:36:58;;;;;;;381.53;253.33;;;;;;;17.06;53.61;99833.22;344039;28;1173;-77
2022/10/31 00:37:08;;;;;;;382.63;253.75;;;;;;;17.06;53.17;99838.53;345968;28;1215;-77
2022/10/31 00:37:19;;;;;;;384.27;255.70;;;;;;;17.07;53.62;99841.06;343954;28;1196;-77
2022/10/31 00:37:29;;;;;;;386.00;255.02;;;;;;;17.07;53.85;99841.06;344762;28;1150;-77
2022/10/31 00:37:39;;;;;;;387.20;258.93;;;;;;;17.08;53.19;99841.91;343128;28;1857;-77
2022/10/31 00:37:50;;;;;;;387.30;261.95;;;;;;;17.08;53.26;99842.75;344004;28;1524;-77
2022/10/31 00:38:00;;;;;;;384.97;259.20;;;;;;;17.08;53.21;99844.56;343641;28;1438;-77
2022/10/31 00:38:11;;;;;;;382.48;256.20;;;;;;;17.09;53.18;99843.63;339246;29;1202;-77
2022/10/31 00:38:21;;;;;;;381.33;252.70;;;;;;;17.07;53.60;99841.06;340328;29;1547;-77
2022/10/31 00:38:32;;;;;;;382.50;257.77;;;;;;;17.08;53.12;99842.75;344607;28;1345;-77
2022/10/31 00:38:43;;;;;;;383.23;259.03;;;;;;;17.08;53.26;99841.91;343659;28;1154;-77
2022/10/31 00:38:53;;;;;;;384.90;264.63;;;;;;;17.08;53.42;99841.91;342501;28;1018;-77
2022/10/31 00:39:03;;;;;;;383.47;261.37;;;;;;;17.09;53.52;99840.97;345054;28;1363;-77
2022/10/31 00:39:14;;;;;;;384.55;258.10;;;;;;;17.10;53.52;99840.03;345021;28;1653;-77
2022/10/31 00:39:24;;;;;;;385.20;255.07;;;;;;;17.11;53.55;99839.06;340221;29;1683;-77
2022/10/31 00:39:34;;;;;;;386.33;254.63;;;;;;;17.09;53.13;99844.47;338508;28;1591;-77
2022/10/31 00:39:45;;;;;;;384.37;256.70;;;;;;;17.11;53.21;99841.72;337117;29;1608;-77
2022/10/31 00:39:55;;;;;;;382.70;255.23;;;;;;;17.12;53.50;99843.41;340945;29;915;-77
2022/10/31 00:40:06;;;;;;;383.85;257.48;;;;;;;17.11;53.60;99841.72;339676;29;1974;-78
2022/10/31 00:40:17;;;;;;;384.75;260.65;;;;;;;17.11;53.37;99847.84;341956;28;1406;-76
2022/10/31 00:40:27;;;;;;;384.70;260.03;;;;;;;17.13;53.38;99842.47;342129;28;1200;-76
2022/10/31 00:40:37;;;;;;;382.75;255.70;;;;;;;17.12;53.25;99846.06;341893;28;1594;-77
2022/10/31 00:40:48;;;;;;;383.40;257.90;;;;;;;17.13;53.28;99850.41;341293;28;952;-78
2022/10/31 00:40:58;;;;;;;383.53;260.47;;;;;;;17.13;53.46;99842.47;340208;29;1195;-78
2022/10/31 00:41:09;;;;;;;385.17;264.70;;;;;;;17.15;53.37;99843.22;341609;28;1496;-76
2022/10/31 00:41:20;;;;;;;384.27;262.55;;;;;;;17.14;53.39;99844.16;337154;29;1987;-77
2022/10/31 00:41:30;;;;;;;385.50;263.33;;;;;;;17.14;53.43;99845.03;336676;29;1986;-77
2022/10/31 00:41:42;;;;;;;386.33;263.93;;;;;;;17.15;53.27;99840.56;338340;29;774;-77
2022/10/31 00:41:52;;;;;;;386.60;263.10;;;;;;;17.16;53.44;99842.28;334126;29;2067;-77
2022/10/31 00:42:03;;;;;;;386.73;265.23;;;;;;;17.17;53.26;99846.63;332600;29;2188;-77
2022/10/31 00:42:13;;;;;;;384.92;260.85;;;;;;;17.17;53.21;99849.28;332976;29;1344;-77
2022/10/31 00:42:23;;;;;;;385.50;265.23;;;;;;;17.18;53.43;99854.47;332840;29;1632;-77
2022/10/31 00:42:34;;;;;;;386.25;268.75;;;;;;;17.17;53.20;99851.91;329874;29;893;-77
2022/10/31 00:42:44;;;;;;;390.10;277.43;;;;;;;17.19;53.34;99844.72;331765;29;1228;-77
2022/10/31 00:42:55;;;;;;;388.30;273.48;;;;;;;17.19;53.17;99852.66;333080;29;1172;-77
2022/10/31 00:43:05;;;;;;;385.37;268.33;;;;;;;17.19;53.31;99853.50;331911;29;1754;-77
2022/10/31 00:43:15;;;;;;;382.73;262.07;;;;;;;17.18;53.12;99849.16;331696;29;2016;-77
2022/10/31 00:43:26;;;;;;;384.55;263.33;;;;;;;17.17;53.39;99843.97;330528;29;893;-78
2022/10/31 00:43:36;;;;;;;386.67;267.83;;;;;;;17.19;53.16;99850.03;326226;29;4624;-77
2022/10/31 00:43:46;;;;;;;390.98;271.27;;;;;;;17.19;53.45;99850.03;323659;30;3179;-77
2022/10/31 00:43:57;;;;;;;395.03;274.17;;;;;;;17.19;53.49;99844.72;325075;30;2997;-77
2022/10/31 00:44:08;;;;;;;397.63;276.58;;;;;;;17.19;53.29;99852.66;319734;30;2801;-77
2022/10/31 00:44:18;;;;;;;393.50;274.30;;;;;;;17.19;53.26;99848.22;320293;30;3484;-77
2022/10/31 00:44:29;;;;;;;388.97;266.83;;;;;;;17.18;53.56;99853.59;317383;31;908;-77
2022/10/31 00:44:39;;;;;;;388.00;266.00;;;;;;;17.19;53.71;99855.31;320029;30;1520;-77
2022/10/31 00:44:51;;;;;;;388.85;263.20;;;;;;;17.18;53.32;99857.09;317429;30;1612;-77
2022/10/31 00:45:01;;;;;;;386.05;259.75;;;;;;;17.19;53.80;99855.31;315068;31;2169;-77
2022/10/31 00:45:12;;;;;;;387.30;263.07;;;;;;;17.18;53.52;99848.31;315105;31;1280;-78
2022/10/31 00:45:22;;;;;;;389.52;267.20;;;;;;;17.19;53.67;99855.31;318207;30;2598;-78
2022/10/31 00:45:33;;;;;;;392.52;265.17;;;;;;;17.19;53.26;99855.31;316628;30;2915;-78
2022/10/31 00:45:43;;;;;;;391.37;260.57;;;;;;;17.20;53.37;99862.28;318175;31;1070;-78
2022/10/31 00:45:54;;;;;;;395.25;255.75;;;;;;;17.20;53.19;99854.38;316408;31;878;-77
2022/10/31 00:46:04;;;;;;;394.57;258.50;;;;;;;17.19;53.51;99853.50;314606;31;3266;-77
2022/10/31 00:46:15;;;;;;;392.63;257.73;;;;;;;17.19;53.04;99858.81;311659;31;3642;-77
2022/10/31 00:46:26;;;;;;;387.92;262.23;;;;;;;17.22;53.15;99865.69;310921;31;1522;-78
2022/10/31 00:46:37;;;;;;;385.62;259.12;;;;;;;17.22;53.08;99860.41;308633;31;3590;-78
2022/10/31 00:46:47;;;;;;;388.40;261.87;;;;;;;17.21;53.19;99859.56;310078;31;2475;-78
2022/10/31 00:46:58;;;;;;;389.57;265.87;;;;;;;17.21;53.19;99859.56;309749;31;827;-78
2022/10/31 00:47:09;;;;;;;390.90;264.55;;;;;;;17.20;53.16;99857.84;304182;32;2075;-77
2022/10/31 00:47:20;;;;;;;392.20;262.95;;;;;;;17.20;53.09;99854.38;304426;32;3061;-77
2022/10/31 00:47:30;;;;;;;395.80;265.60;;;;;;;17.20;53.02;99854.38;304021;32;3723;-77
2022/10/31 00:47:41;;;;;;;395.85;271.55;;;;;;;17.21;52.94;99859.56;306397;32;808;-76
2022/10/31 00:47:51;;;;;;;393.40;271.70;;;;;;;17.21;53.09;99859.56;305071;32;4084;-76
2022/10/31 00:48:01;;;;;;;391.10;268.40;;;;;;;17.22;52.99;99855.13;304465;32;5094;-76
2022/10/31 00:48:12;;;;;;;390.97;268.33;;;;;;;17.22;53.16;99860.41;306448;32;844;-76
2022/10/31 00:48:22;;;;;;;391.70;267.30;;;;;;;17.20;53.06;99857.00;304177;32;4250;-76
2022/10/31 00:48:32;;;;;;;392.45;269.60;;;;;;;17.20;53.17;99854.38;303337;32;4512;-78
2022/10/31 00:48:43;;;;;;;392.77;273.60;;;;;;;17.19;53.71;99861.44;305443;32;824;-77
2022/10/31 00:48:53;;;;;;;390.38;272.60;;;;;;;17.19;53.53;99857.97;308232;31;4787;-77
2022/10/31 00:49:04;;;;;;;392.00;270.10;;;;;;;17.19;53.08;99853.50;303969;32;3435;-77
2022/10/31 00:49:14;;;;;;;391.10;267.90;;;;;;;17.20;53.09;99851.72;301620;32;2862;-77
2022/10/31 00:49:24;;;;;;;393.10;271.30;;;;;;;17.20;53.03;99851.72;300596;32;1254;-78
2022/10/31 00:49:35;;;;;;;389.67;268.40;;;;;;;17.20;52.82;99857.00;296505;32;4268;-77
2022/10/31 00:49:46;;;;;;;390.07;272.80;;;;;;;17.21;52.64;99854.25;294082;32;5690;-76
2022/10/31 00:49:56;;;;;;;390.13;272.40;;;;;;;17.22;52.76;99855.13;294912;33;1231;-76
2022/10/31 00:50:07;;;;;;;390.97;276.20;;;;;;;17.22;52.79;99853.31;291795;33;6490;-77
2022/10/31 00:50:17;;;;;;;389.48;271.63;;;;;;;17.23;52.65;99852.38;289087;33;6048;-76
2022/10/31 00:50:27;;;;;;;388.67;272.23;;;;;;;17.24;53.15;99853.22;286873;34;2029;-77
2022/10/31 00:50:38;;;;;;;387.02;269.92;;;;;;;17.24;52.72;99858.50;286876;34;5791;-78
2022/10/31 00:50:48;;;;;;;387.20;273.67;;;;;;;17.24;52.67;99853.22;289452;33;6445;-77
2022/10/31 00:50:59;;;;;;;387.42;272.15;;;;;;;17.23;52.53;99851.53;290890;34;2262;-77
2022/10/31 00:51:09;;;;;;;388.27;271.57;;;;;;;17.24;52.76;99855.88;289091;34;1213;-78
2022/10/31 00:51:20;;;;;;;388.38;266.50;;;;;;;17.24;52.59;99855.88;285986;34;4656;-78
2022/10/31 00:51:30;;;;;;;386.70;265.20;;;;;;;17.23;52.37;99852.38;281950;34;4366;-77
2022/10/31 00:51:41;;;;;;;387.05;266.20;;;;;;;17.25;52.25;99852.28;283629;34;1294;-77
2022/10/31 00:51:51;;;;;;;388.73;271.60;;;;;;;17.24;52.73;99850.56;279854;34;6556;-77
2022/10/31 00:52:01;;;;;;;388.55;270.23;;;;;;;17.24;52.72;99853.22;279776;34;7682;-77
2022/10/31 00:52:12;;;;;;;388.03;270.93;;;;;;;17.25;52.84;99849.63;281682;35;1244;-77